Latest Coastal Weather Observations for Gunn Point

IDD60701

Issued at 3:35 pm CST Saturday 20 September 2014 (issued every 10 minutes, with the page automatically refreshed every 10 minutes)

About coastal observations | Map of coastal stations | Coastal observations for NT | Marine services | Other Formats
Station Details ID: 014023 Name: GUNN POINT Lat: -12.25 Lon: 131.04 Height: 25.0 m
Data from the previous 72 hours. | See also: Recent months for locations in Northern Territory
Date/Time
CST
Temp

°C
Wind Pressure Rain
since 9am
mm
Weather Cloud Vis
km
Sea
Height
m
Swell
Dir
 
Speed
knots
Gust
knots
hPa Trend Height
m
Period
s
Dir
20/03:30pm 32.6 NE 10 17 1010.1 - 0.0 - - - - - - -
20/03:00pm 33.4 ENE 9 19 1010.5 - 0.0 - - - - - - -
20/02:30pm 33.0 NE 11 20 1010.9 - 0.0 - - - - - - -
20/02:00pm 33.3 NE 11 18 1011.3 - 0.0 - - - - - - -
20/01:30pm 33.5 NE 8 16 1012.0 - 0.0 - - - - - - -
20/01:00pm 34.2 NE 8 19 1012.7 - 0.0 - - - - - - -
20/12:30pm 35.2 ENE 6 14 1013.2 - 0.0 - - - - - - -
20/12:00pm 34.4 E 10 16 1014.1 - 0.0 - - - - - - -
20/11:30am 34.0 ESE 5 13 1014.7 - 0.0 - - - - - - -
20/11:00am 32.4 E 4 12 1015.1 - 0.0 - - - - - - -
20/10:30am 31.4 ENE 6 12 1015.4 - 0.0 - - - - - - -
20/10:00am 30.7 E 3 7 1015.6 - 0.0 - - - - - - -
20/09:30am 29.8 E 4 7 1015.6 - 0.0 - - - - - - -
20/09:00am 28.5 ENE 3 5 1015.5 - - - - - - - - -
20/08:30am 27.5 CALM 0 1 1015.1 - - - - - - - - -
20/08:00am 24.3 CALM 0 0 1014.9 - - - - - - - - -
20/07:30am 19.7 CALM 0 0 1014.5 - - - - - - - - -
20/07:00am 16.8 CALM 0 0 1014.2 - - - - - - - - -
20/06:30am 16.6 CALM 0 0 1013.7 - - - - - - - - -
20/06:00am 16.7 CALM 0 0 1013.3 - - - - - - - - -
20/05:30am 17.5 CALM 0 0 1013.1 - - - - - - - - -
20/05:00am 17.4 CALM 0 0 1013.0 - - - - - - - - -
20/04:30am 17.8 CALM 0 0 1013.0 - - - - - - - - -
20/04:00am 18.4 CALM 0 0 1013.2 - - - - - - - - -
20/03:30am 18.9 CALM 0 0 1013.3 - - - - - - - - -
20/03:00am 19.0 CALM 0 1 1013.4 - 0.0 - - - - - - -
20/02:30am 19.6 CALM 0 0 1013.6 - - - - - - - - -
20/02:00am 20.5 CALM 0 0 1014.0 - - - - - - - - -
20/01:30am 21.4 N 1 3 1014.4 - - - - - - - - -
20/01:00am 22.7 CALM 0 2 1014.8 - - - - - - - - -
20/12:30am 24.7 NNW 1 3 1015.0 - - - - - - - - -
20/12:00am 25.4 NNW 1 3 1015.2 - - - - - - - - -
 
Date/Time
CST
Temp

°C
Wind Pressure Rain
since 9am
mm
Weather Cloud Vis
km
Sea
Height
m
Swell
Dir
 
Speed
knots
Gust
knots
hPa Trend Height
m
Period
s
Dir
19/11:30pm 26.1 NW 2 5 1015.3 - - - - - - - - -
19/11:00pm 26.2 WNW 3 5 1015.1 - - - - - - - - -
19/10:30pm 26.5 W 3 6 1014.9 - - - - - - - - -
19/10:00pm 26.1 W 4 8 1014.5 - - - - - - - - -
19/09:30pm 22.5 NW 2 5 1014.1 - - - - - - - - -
19/09:00pm 21.2 ENE 1 3 1013.5 - - - - - - - - -
19/08:30pm 21.5 E 1 3 1013.1 - - - - - - - - -
19/08:00pm 21.8 CALM 0 0 1012.8 - - - - - - - - -
19/07:30pm 22.5 SSW 1 4 1012.3 - - - - - - - - -
19/07:00pm 25.3 CALM 0 0 1011.5 - - - - - - - - -
19/06:30pm 29.4 NE 4 7 1010.8 - - - - - - - - -
19/06:00pm 30.6 NE 4 10 1010.4 - - - - - - - - -
19/05:30pm 31.5 NE 5 9 1010.1 - - - - - - - - -
19/05:00pm 32.8 NNE 6 10 1009.9 - - - - - - - - -
19/04:30pm 33.9 NNE 6 10 1009.9 - 0.0 - - - - - - -
19/04:00pm 33.3 NNE 6 12 1010.1 - 0.0 - - - - - - -
19/03:30pm 35.3 NE 6 12 1010.4 - 0.0 - - - - - - -
19/03:00pm 34.9 N 5 10 1010.8 - 0.0 - - - - - - -
19/02:30pm 33.5 N 7 14 1011.2 - 0.0 - - - - - - -
19/02:00pm 33.2 WNW 5 13 1011.7 - 0.0 - - - - - - -
19/01:30pm 32.6 NW 6 14 1012.2 - 0.0 - - - - - - -
19/01:00pm 31.7 WNW 6 11 1012.5 - 0.0 - - - - - - -
19/12:30pm 31.8 NW 5 11 1013.1 - 0.0 - - - - - - -
19/12:00pm 31.8 NW 3 7 1014.0 - 0.0 - - - - - - -
19/11:30am 35.0 ENE 3 7 1014.4 - 0.0 - - - - - - -
19/11:00am 33.6 NE 3 7 1015.1 - 0.0 - - - - - - -
19/10:30am 33.0 E 3 9 1015.5 - 0.0 - - - - - - -
19/10:00am 31.2 ENE 2 6 1015.6 - 0.0 - - - - - - -
19/09:30am 29.1 S 2 4 1015.8 - 0.0 - - - - - - -
19/09:00am 28.1 S 2 5 1015.8 - 0.0 - - - - - - -
19/08:30am 26.7 SSE 2 4 1015.7 - 0.0 - - - - - - -
19/08:00am 24.6 CALM 0 0 1015.4 - 0.0 - - - - - - -
19/07:30am 20.9 CALM 0 0 1015.0 - 0.0 - - - - - - -
19/07:00am 18.3 CALM 0 0 1014.8 - 0.0 - - - - - - -
19/06:30am 18.0 CALM 0 0 1014.6 - 0.0 - - - - - - -
19/06:00am 18.1 SSE 1 3 1014.2 - 0.0 - - - - - - -
19/05:30am 18.3 SSE 1 3 1013.9 - 0.0 - - - - - - -
19/05:00am 17.7 CALM 0 0 1013.6 - 0.0 - - - - - - -
19/04:30am 18.3 CALM 0 0 1013.5 - 0.0 - - - - - - -
19/04:00am 18.1 S 1 2 1013.4 - 0.0 - - - - - - -
19/03:30am 18.3 CALM 0 0 1013.5 - 0.0 - - - - - - -
19/03:00am 18.5 CALM 0 0 1013.6 - 0.0 - - - - - - -
19/02:30am 19.4 CALM 0 0 1013.7 - 0.0 - - - - - - -
19/02:00am 19.9 CALM 0 0 1013.9 - 0.0 - - - - - - -
19/01:30am 21.4 WSW 1 3 1014.2 - 0.0 - - - - - - -
19/01:00am 21.9 CALM 0 2 1014.4 - 0.0 - - - - - - -
19/12:30am 21.1 W 1 4 1014.8 - 0.0 - - - - - - -
19/12:00am 21.1 CALM 0 2 1015.2 - 0.0 - - - - - - -
 
Date/Time
CST
Temp

°C
Wind Pressure Rain
since 9am
mm
Weather Cloud Vis
km
Sea
Height
m
Swell
Dir
 
Speed
knots
Gust
knots
hPa Trend Height
m
Period
s
Dir
18/11:30pm 20.5 NNE 1 3 1015.3 - 0.0 - - - - - - -
18/11:00pm 20.3 NE 1 3 1015.1 - 0.0 - - - - - - -
18/10:30pm 20.6 CALM 0 1 1014.8 - 0.0 - - - - - - -
18/10:00pm 20.6 ENE 1 3 1014.6 - 0.0 - - - - - - -
18/09:30pm 20.1 CALM 0 0 1014.2 - 0.0 - - - - - - -
18/09:00pm 20.6 CALM 0 0 1013.8 - 0.0 - - - - - - -
18/08:30pm 21.6 CALM 0 0 1013.4 - 0.0 - - - - - - -
18/08:00pm 22.7 CALM 0 0 1013.1 - 0.0 - - - - - - -
18/07:30pm 25.6 CALM 0 2 1012.8 - 0.0 - - - - - - -
18/07:00pm 27.4 NE 2 4 1012.3 - 0.0 - - - - - - -
18/06:30pm 28.4 NE 4 9 1011.9 - 0.0 - - - - - - -
18/06:00pm 29.7 NE 4 7 1011.6 - 0.0 - - - - - - -
18/05:30pm 30.8 NE 5 12 1011.3 - 0.0 - - - - - - -
18/05:00pm 31.9 NNE 4 9 1010.7 - 0.0 - - - - - - -
18/04:30pm 32.3 NE 5 9 1010.8 - 0.0 - - - - - - -
18/04:00pm 32.2 N 7 12 1010.9 - 0.0 - - - - - - -
18/03:30pm 32.4 N 6 10 1011.5 - 0.0 - - - - - - -
18/03:00pm 32.6 N 4 10 1011.9 - 0.0 - - - - - - -
18/02:30pm 30.7 WNW 6 11 1012.4 - 0.0 - - - - - - -
18/02:00pm 30.3 WNW 6 12 1012.8 - 0.0 - - - - - - -
18/01:30pm 29.1 W 7 11 1013.6 - 0.0 - - - - - - -
18/01:00pm 30.5 WNW 6 11 1014.1 - 0.0 - - - - - - -
18/12:30pm 30.5 NW 7 11 1014.7 - 0.0 - - - - - - -
18/12:00pm 29.7 WNW 7 11 1015.4 - 0.0 - - - - - - -
18/11:30am 29.1 WNW 6 10 1016.1 - 0.0 - - - - - - -
18/11:00am 28.9 WNW 6 10 1016.3 - 0.0 - - - - - - -
18/10:30am 29.2 W 5 8 1016.5 - 0.0 - - - - - - -
18/10:00am 29.8 SSW 1 3 1016.5 - 0.0 - - - - - - -
18/09:30am 29.5 E 2 6 1016.5 - 0.0 - - - - - - -
18/09:00am 27.4 ESE 2 7 1016.6 - - - - - - - - -
18/08:30am 26.8 CALM 0 2 1016.2 - - - - - - - - -
18/08:00am 23.9 CALM 0 0 1016.0 - - - - - - - - -
18/07:30am 19.6 CALM 0 0 1015.6 - - - - - - - - -
18/07:00am 17.0 CALM 0 0 1015.2 - - - - - - - - -
18/06:30am 16.8 CALM 0 0 1014.7 - - - - - - - - -
18/06:00am 16.5 CALM 0 0 1014.4 - - - - - - - - -
18/05:30am 17.2 CALM 0 0 1014.1 - - - - - - - - -
18/05:00am 17.6 CALM 0 0 1014.0 - - - - - - - - -
18/04:30am 17.4 CALM 0 0 1013.9 - - - - - - - - -
18/04:00am 17.9 CALM 0 0 1013.8 - - - - - - - - -
18/03:30am 18.5 CALM 0 0 1013.9 - - - - - - - - -
18/03:00am 18.4 CALM 0 0 1014.0 - 0.0 - - - - - - -
18/02:30am 18.8 CALM 0 0 1014.1 - - - - - - - - -
18/02:00am 19.2 CALM 0 0 1014.4 - - - - - - - - -
18/01:30am 19.4 CALM 0 0 1014.7 - - - - - - - - -
18/01:00am 20.0 CALM 0 0 1015.1 - - - - - - - - -
18/12:30am 20.6 NNE 1 2 1015.4 - - - - - - - - -
18/12:00am 21.2 CALM 0 0 1015.6 - - - - - - - - -
 
Date/Time
CST
Temp

°C
Wind Pressure Rain
since 9am
mm
Weather Cloud Vis
km
Sea
Height
m
Swell
Dir
 
Speed
knots
Gust
knots
hPa Trend Height
m
Period
s
Dir
17/11:30pm 22.4 CALM 0 0 1015.3 - - - - - - - - -
17/11:00pm 23.8 CALM 0 1 1015.3 - - - - - - - - -
17/10:30pm 24.2 NNE 1 2 1015.1 - - - - - - - - -
17/10:00pm 24.6 CALM 0 0 1014.8 - - - - - - - - -
17/09:30pm 26.6 N 2 4 1014.5 - - - - - - - - -
17/09:00pm 27.1 N 5 10 1014.0 - - - - - - - - -
17/08:30pm 27.0 NNE 5 9 1013.6 - - - - - - - - -
17/08:00pm 26.6 ENE 3 7 1012.8 - - - - - - - - -
17/07:30pm 27.1 ENE 4 7 1012.2 - - - - - - - - -
17/07:00pm 28.0 NE 4 8 1011.6 - - - - - - - - -
17/06:30pm 28.9 NE 3 6 1011.1 - - - - - - - - -
17/06:00pm 29.7 NNE 6 8 1010.6 - - - - - - - - -
17/05:30pm 31.1 NNE 4 7 1010.3 - - - - - - - - -
17/05:00pm 31.7 N 4 8 1010.3 - 0.0 - - - - - - -
17/04:30pm 31.9 NNE 6 11 1010.2 - 0.0 - - - - - - -
17/04:00pm 32.2 NE 6 12 1010.1 - 0.0 - - - - - - -

Other Formats:

Comma delimited format used in spreadsheet applications
http://www.bom.gov.au/fwo/IDD60701/IDD60701.99501.axf

JavaScript Object Notation format (JSON) in row-major order
http://www.bom.gov.au/fwo/IDD60701/IDD60701.99501.json